KHLG/HLG METAR and TAF weather

Enter ICAO airport designator
Station Type Date Time Source
KHLG METAR 2020/08/06 00:53 UTC NOAA

KHLG 060053Z AUTO 33004KT 10SM CLR 21/12 A3010 RMK AO2 SLP188 T02110117


Station Type Date Time Source
KHLG Decoded METAR 2020/08/06 00:53 UTC NOAA

WHEELING OHIO COUNTY AIRPORT, WV, United States (KHLG) 40-10N 080-39W 372M
Aug 05, 2020 - 08:53 PM EDT / 2020.08.06 0053 UTC
Wind: from the NNW (330 degrees) at 5 MPH (4 KT):0
Visibility: 10 mile(s):0
Sky conditions: clear
Temperature: 70.0 F (21.1 C)
Dew Point: 53.1 F (11.7 C)
Relative Humidity: 54%
Pressure (altimeter): 30.1 in. Hg (1019 hPa)
ob: KHLG 060053Z AUTO 33004KT 10SM CLR 21/12 A3010 RMK AO2 SLP188 T02110117
cycle: 1

Station Type Date Time Source
KHLG TAF 2020/08/05 18:22 UTC NOAA

TAF KHLG 051720Z 0518/0618 VRB06KT P6SM SCT035
FM060900 VRB02KT 4SM BR FEW002
FM061400 05005KT P6SM BKN080

Example: see airport list